sensor_id;sensor_type;location;lat;lon;timestamp;temperature;humidity
64939;DHT22;51453;47.738;7.420;2022-08-05T00:01:21;24.20;97.70
64939;DHT22;51453;47.738;7.420;2022-08-05T00:03:48;24.20;97.90
64939;DHT22;51453;47.738;7.420;2022-08-05T00:06:14;24.20;97.90
64939;DHT22;51453;47.738;7.420;2022-08-05T00:08:41;24.10;97.90
64939;DHT22;51453;47.738;7.420;2022-08-05T00:11:13;24.20;97.50
64939;DHT22;51453;47.738;7.420;2022-08-05T00:13:41;24.20;97.80
64939;DHT22;51453;47.738;7.420;2022-08-05T00:16:09;24.20;97.70
64939;DHT22;51453;47.738;7.420;2022-08-05T00:18:36;24.10;97.70
64939;DHT22;51453;47.738;7.420;2022-08-05T00:21:02;24.10;97.40
64939;DHT22;51453;47.738;7.420;2022-08-05T00:23:28;24.30;97.20
64939;DHT22;51453;47.738;7.420;2022-08-05T00:25:54;24.50;96.70
64939;DHT22;51453;47.738;7.420;2022-08-05T00:28:19;24.50;96.50
64939;DHT22;51453;47.738;7.420;2022-08-05T00:30:45;24.30;96.90
64939;DHT22;51453;47.738;7.420;2022-08-05T00:33:11;24.10;97.50
64939;DHT22;51453;47.738;7.420;2022-08-05T00:35:37;24.00;97.90
64939;DHT22;51453;47.738;7.420;2022-08-05T00:38:02;23.80;99.00
64939;DHT22;51453;47.738;7.420;2022-08-05T00:40:28;23.60;99.50
64939;DHT22;51453;47.738;7.420;2022-08-05T00:42:56;23.50;99.70
64939;DHT22;51453;47.738;7.420;2022-08-05T00:45:22;23.30;99.90
64939;DHT22;51453;47.738;7.420;2022-08-05T00:47:47;23.20;99.90
64939;DHT22;51453;47.738;7.420;2022-08-05T00:50:13;23.10;99.90
64939;DHT22;51453;47.738;7.420;2022-08-05T00:52:39;22.90;99.90
64939;DHT22;51453;47.738;7.420;2022-08-05T00:55:05;22.90;99.90
64939;DHT22;51453;47.738;7.420;2022-08-05T00:57:30;22.90;99.90
64939;DHT22;51453;47.738;7.420;2022-08-05T00:59:56;22.80;99.90
64939;DHT22;51453;47.738;7.420;2022-08-05T01:02:21;23.00;99.90
64939;DHT22;51453;47.738;7.420;2022-08-05T01:04:47;22.90;99.90
64939;DHT22;51453;47.738;7.420;2022-08-05T01:07:13;22.90;99.90
64939;DHT22;51453;47.738;7.420;2022-08-05T01:09:38;22.90;99.90
64939;DHT22;51453;47.738;7.420;2022-08-05T01:12:08;22.90;99.90
64939;DHT22;51453;47.738;7.420;2022-08-05T01:15:05;22.80;99.90
64939;DHT22;51453;47.738;7.420;2022-08-05T01:20:30;23.00;99.90
64939;DHT22;51453;47.738;7.420;2022-08-05T01:28:55;22.80;99.90
64939;DHT22;51453;47.738;7.420;2022-08-05T01:34:03;22.70;99.90
64939;DHT22;51453;47.738;7.420;2022-08-05T01:36:35;22.70;99.90
64939;DHT22;51453;47.738;7.420;2022-08-05T01:39:03;22.70;99.90
64939;DHT22;51453;47.738;7.420;2022-08-05T01:41:33;22.60;99.90
64939;DHT22;51453;47.738;7.420;2022-08-05T01:44:01;22.50;99.90
64939;DHT22;51453;47.738;7.420;2022-08-05T01:46:28;22.40;99.90
64939;DHT22;51453;47.738;7.420;2022-08-05T01:48:56;22.50;99.90
64939;DHT22;51453;47.738;7.420;2022-08-05T01:51:23;22.50;99.90
64939;DHT22;51453;47.738;7.420;2022-08-05T01:53:51;22.40;99.90
64939;DHT22;51453;47.738;7.420;2022-08-05T01:56:18;22.40;99.90
64939;DHT22;51453;47.738;7.420;2022-08-05T01:58:48;22.30;99.90
64939;DHT22;51453;47.738;7.420;2022-08-05T02:01:17;22.30;99.90
64939;DHT22;51453;47.738;7.420;2022-08-05T02:03:45;22.20;99.90
64939;DHT22;51453;47.738;7.420;2022-08-05T02:06:13;22.10;99.90
64939;DHT22;51453;47.738;7.420;2022-08-05T02:08:39;22.10;99.90
64939;DHT22;51453;47.738;7.420;2022-08-05T02:11:11;22.00;99.90
64939;DHT22;51453;47.738;7.420;2022-08-05T02:13:45;22.00;99.90
64939;DHT22;51453;47.738;7.420;2022-08-05T02:16:26;22.00;99.90
64939;DHT22;51453;47.738;7.420;2022-08-05T02:19:13;22.00;99.90
64939;DHT22;51453;47.738;7.420;2022-08-05T02:21:43;21.90;99.90
64939;DHT22;51453;47.738;7.420;2022-08-05T02:24:15;21.90;99.90
64939;DHT22;51453;47.738;7.420;2022-08-05T02:26:50;21.90;99.90
64939;DHT22;51453;47.738;7.420;2022-08-05T02:29:21;21.80;99.90
64939;DHT22;51453;47.738;7.420;2022-08-05T02:31:48;21.80;99.90
64939;DHT22;51453;47.738;7.420;2022-08-05T02:34:16;21.90;99.90
64939;DHT22;51453;47.738;7.420;2022-08-05T02:36:52;22.00;99.90
64939;DHT22;51453;47.738;7.420;2022-08-05T02:39:20;22.10;99.90
64939;DHT22;51453;47.738;7.420;2022-08-05T02:41:47;22.30;99.90
64939;DHT22;51453;47.738;7.420;2022-08-05T02:44:14;22.20;99.90
64939;DHT22;51453;47.738;7.420;2022-08-05T02:46:41;22.20;99.90
64939;DHT22;51453;47.738;7.420;2022-08-05T02:49:09;22.30;99.90
64939;DHT22;51453;47.738;7.420;2022-08-05T02:51:37;22.30;99.90
64939;DHT22;51453;47.738;7.420;2022-08-05T02:54:04;22.30;99.90
64939;DHT22;51453;47.738;7.420;2022-08-05T02:56:32;22.30;99.90
64939;DHT22;51453;47.738;7.420;2022-08-05T02:58:59;22.50;99.90
64939;DHT22;51453;47.738;7.420;2022-08-05T03:01:25;22.50;99.90
64939;DHT22;51453;47.738;7.420;2022-08-05T03:03:59;22.40;99.90
64939;DHT22;51453;47.738;7.420;2022-08-05T03:06:26;22.40;99.90
64939;DHT22;51453;47.738;7.420;2022-08-05T03:08:52;22.30;99.90
64939;DHT22;51453;47.738;7.420;2022-08-05T03:11:24;22.20;99.90
64939;DHT22;51453;47.738;7.420;2022-08-05T03:13:50;22.10;99.90
64939;DHT22;51453;47.738;7.420;2022-08-05T03:16:17;22.00;99.90
64939;DHT22;51453;47.738;7.420;2022-08-05T03:18:42;22.00;99.90
64939;DHT22;51453;47.738;7.420;2022-08-05T03:21:09;21.90;99.90
64939;DHT22;51453;47.738;7.420;2022-08-05T03:23:36;21.80;99.90
64939;DHT22;51453;47.738;7.420;2022-08-05T03:26:03;21.70;99.90
64939;DHT22;51453;47.738;7.420;2022-08-05T03:28:29;21.70;99.90
64939;DHT22;51453;47.738;7.420;2022-08-05T03:30:57;21.60;99.90
64939;DHT22;51453;47.738;7.420;2022-08-05T03:33:28;21.60;99.90
64939;DHT22;51453;47.738;7.420;2022-08-05T03:35:56;21.60;99.90
64939;DHT22;51453;47.738;7.420;2022-08-05T03:38:23;21.60;99.90
64939;DHT22;51453;47.738;7.420;2022-08-05T03:40:49;21.60;99.90
64939;DHT22;51453;47.738;7.420;2022-08-05T03:43:16;21.50;99.90
64939;DHT22;51453;47.738;7.420;2022-08-05T03:45:42;21.40;99.90
64939;DHT22;51453;47.738;7.420;2022-08-05T03:48:08;21.40;99.90
64939;DHT22;51453;47.738;7.420;2022-08-05T03:50:49;21.50;99.90
64939;DHT22;51453;47.738;7.420;2022-08-05T03:53:36;21.40;99.90
64939;DHT22;51453;47.738;7.420;2022-08-05T03:56:20;21.50;99.90
64939;DHT22;51453;47.738;7.420;2022-08-05T03:58:48;21.60;99.90
64939;DHT22;51453;47.738;7.420;2022-08-05T04:01:16;21.70;99.90
64939;DHT22;51453;47.738;7.420;2022-08-05T04:03:45;21.80;99.90
64939;DHT22;51453;47.738;7.420;2022-08-05T04:06:13;21.80;99.90
64939;DHT22;51453;47.738;7.420;2022-08-05T04:08:40;22.00;99.90
64939;DHT22;51453;47.738;7.420;2022-08-05T04:11:08;22.10;99.90
64939;DHT22;51453;47.738;7.420;2022-08-05T04:13:34;22.30;99.90
64939;DHT22;51453;47.738;7.420;2022-08-05T04:16:03;22.40;99.90
64939;DHT22;51453;47.738;7.420;2022-08-05T04:18:29;22.40;99.90
64939;DHT22;51453;47.738;7.420;2022-08-05T04:20:57;22.50;99.90
64939;DHT22;51453;47.738;7.420;2022-08-05T04:23:24;22.40;99.90
64939;DHT22;51453;47.738;7.420;2022-08-05T04:25:50;22.30;99.90
64939;DHT22;51453;47.738;7.420;2022-08-05T04:28:19;22.10;99.90
64939;DHT22;51453;47.738;7.420;2022-08-05T04:30:45;21.90;99.90
64939;DHT22;51453;47.738;7.420;2022-08-05T04:33:11;21.80;99.90
64939;DHT22;51453;47.738;7.420;2022-08-05T04:35:37;21.70;99.90
64939;DHT22;51453;47.738;7.420;2022-08-05T04:38:03;21.70;99.90
64939;DHT22;51453;47.738;7.420;2022-08-05T04:40:35;21.70;99.90
64939;DHT22;51453;47.738;7.420;2022-08-05T04:43:01;21.70;99.90
64939;DHT22;51453;47.738;7.420;2022-08-05T04:45:27;21.80;99.90
64939;DHT22;51453;47.738;7.420;2022-08-05T04:47:53;21.90;99.90
64939;DHT22;51453;47.738;7.420;2022-08-05T04:50:18;22.00;99.90
64939;DHT22;51453;47.738;7.420;2022-08-05T04:52:44;22.00;99.90
64939;DHT22;51453;47.738;7.420;2022-08-05T04:55:10;22.20;99.90
64939;DHT22;51453;47.738;7.420;2022-08-05T04:57:36;22.40;99.90
64939;DHT22;51453;47.738;7.420;2022-08-05T05:00:03;22.50;99.90
64939;DHT22;51453;47.738;7.420;2022-08-05T05:02:30;22.60;99.90
64939;DHT22;51453;47.738;7.420;2022-08-05T05:04:56;22.50;99.90
64939;DHT22;51453;47.738;7.420;2022-08-05T05:07:22;22.50;99.90
64939;DHT22;51453;47.738;7.420;2022-08-05T05:09:47;22.30;99.90
64939;DHT22;51453;47.738;7.420;2022-08-05T05:12:13;22.20;99.90
64939;DHT22;51453;47.738;7.420;2022-08-05T05:14:39;22.10;99.90
64939;DHT22;51453;47.738;7.420;2022-08-05T05:17:04;22.00;99.90
64939;DHT22;51453;47.738;7.420;2022-08-05T05:19:30;22.00;99.90
64939;DHT22;51453;47.738;7.420;2022-08-05T05:21:56;22.00;99.90
64939;DHT22;51453;47.738;7.420;2022-08-05T05:24:21;22.00;99.90
64939;DHT22;51453;47.738;7.420;2022-08-05T05:26:47;22.10;99.90
64939;DHT22;51453;47.738;7.420;2022-08-05T05:29:13;22.20;99.90
64939;DHT22;51453;47.738;7.420;2022-08-05T05:31:39;22.20;99.90
64939;DHT22;51453;47.738;7.420;2022-08-05T05:34:04;22.20;99.90
64939;DHT22;51453;47.738;7.420;2022-08-05T05:36:30;22.50;99.90
64939;DHT22;51453;47.738;7.420;2022-08-05T05:38:57;23.70;99.90
64939;DHT22;51453;47.738;7.420;2022-08-05T05:41:23;25.30;99.90
64939;DHT22;51453;47.738;7.420;2022-08-05T05:43:48;25.80;99.90
64939;DHT22;51453;47.738;7.420;2022-08-05T05:46:14;26.40;99.90
64939;DHT22;51453;47.738;7.420;2022-08-05T05:48:40;27.70;99.90
64939;DHT22;51453;47.738;7.420;2022-08-05T05:51:06;28.90;99.90
64939;DHT22;51453;47.738;7.420;2022-08-05T05:53:33;28.20;99.90
64939;DHT22;51453;47.738;7.420;2022-08-05T05:55:58;26.60;99.90
64939;DHT22;51453;47.738;7.420;2022-08-05T05:58:24;25.30;99.90
64939;DHT22;51453;47.738;7.420;2022-08-05T06:00:50;24.50;99.90
64939;DHT22;51453;47.738;7.420;2022-08-05T06:03:16;24.10;99.90
64939;DHT22;51453;47.738;7.420;2022-08-05T06:05:41;23.90;99.90
64939;DHT22;51453;47.738;7.420;2022-08-05T06:08:07;24.00;99.90
64939;DHT22;51453;47.738;7.420;2022-08-05T06:10:34;25.20;99.90
64939;DHT22;51453;47.738;7.420;2022-08-05T06:13:00;25.50;99.90
64939;DHT22;51453;47.738;7.420;2022-08-05T06:15:26;25.60;99.90
64939;DHT22;51453;47.738;7.420;2022-08-05T06:17:52;25.70;99.90
64939;DHT22;51453;47.738;7.420;2022-08-05T06:20:17;25.70;99.90
64939;DHT22;51453;47.738;7.420;2022-08-05T06:22:43;26.10;99.90
64939;DHT22;51453;47.738;7.420;2022-08-05T06:25:09;26.00;99.90
64939;DHT22;51453;47.738;7.420;2022-08-05T06:27:34;25.80;99.90
64939;DHT22;51453;47.738;7.420;2022-08-05T06:30:01;25.50;99.90
64939;DHT22;51453;47.738;7.420;2022-08-05T06:32:27;25.30;99.90
64939;DHT22;51453;47.738;7.420;2022-08-05T06:34:56;25.10;99.90
64939;DHT22;51453;47.738;7.420;2022-08-05T06:37:26;24.90;99.90
64939;DHT22;51453;47.738;7.420;2022-08-05T06:39:52;24.70;99.90
64939;DHT22;51453;47.738;7.420;2022-08-05T06:42:18;24.70;99.90
64939;DHT22;51453;47.738;7.420;2022-08-05T06:44:43;24.70;99.90
64939;DHT22;51453;47.738;7.420;2022-08-05T06:47:09;24.70;99.90
64939;DHT22;51453;47.738;7.420;2022-08-05T06:49:35;24.70;99.90
64939;DHT22;51453;47.738;7.420;2022-08-05T06:52:00;25.00;99.90
64939;DHT22;51453;47.738;7.420;2022-08-05T06:54:26;25.30;99.90
64939;DHT22;51453;47.738;7.420;2022-08-05T06:56:52;25.50;99.90
64939;DHT22;51453;47.738;7.420;2022-08-05T06:59:18;25.70;99.90
64939;DHT22;51453;47.738;7.420;2022-08-05T07:01:43;25.90;99.90
64939;DHT22;51453;47.738;7.420;2022-08-05T07:04:09;26.10;99.90
64939;DHT22;51453;47.738;7.420;2022-08-05T07:06:35;26.10;99.90
64939;DHT22;51453;47.738;7.420;2022-08-05T07:09:01;26.30;99.90
64939;DHT22;51453;47.738;7.420;2022-08-05T07:11:27;26.50;99.90
64939;DHT22;51453;47.738;7.420;2022-08-05T07:13:53;26.70;99.90
64939;DHT22;51453;47.738;7.420;2022-08-05T07:16:37;26.70;99.90
64939;DHT22;51453;47.738;7.420;2022-08-05T07:19:19;26.60;99.90
64939;DHT22;51453;47.738;7.420;2022-08-05T07:21:46;26.30;99.90
64939;DHT22;51453;47.738;7.420;2022-08-05T07:24:13;26.10;99.90
64939;DHT22;51453;47.738;7.420;2022-08-05T07:26:39;25.90;99.90
64939;DHT22;51453;47.738;7.420;2022-08-05T07:29:06;25.80;99.90
64939;DHT22;51453;47.738;7.420;2022-08-05T07:31:32;25.70;99.90
64939;DHT22;51453;47.738;7.420;2022-08-05T07:33:57;25.70;99.90
64939;DHT22;51453;47.738;7.420;2022-08-05T07:36:23;25.70;99.90
64939;DHT22;51453;47.738;7.420;2022-08-05T07:38:49;25.70;99.90
64939;DHT22;51453;47.738;7.420;2022-08-05T07:41:18;25.90;99.90
64939;DHT22;51453;47.738;7.420;2022-08-05T07:43:44;25.80;99.90
64939;DHT22;51453;47.738;7.420;2022-08-05T07:46:11;25.80;99.90
64939;DHT22;51453;47.738;7.420;2022-08-05T07:48:36;25.90;99.90
64939;DHT22;51453;47.738;7.420;2022-08-05T07:51:02;26.10;99.90
64939;DHT22;51453;47.738;7.420;2022-08-05T07:53:28;26.30;99.90
64939;DHT22;51453;47.738;7.420;2022-08-05T07:55:53;26.50;99.90
64939;DHT22;51453;47.738;7.420;2022-08-05T07:58:19;26.60;99.90
64939;DHT22;51453;47.738;7.420;2022-08-05T08:00:45;26.70;99.90
64939;DHT22;51453;47.738;7.420;2022-08-05T08:03:11;26.90;99.90
64939;DHT22;51453;47.738;7.420;2022-08-05T08:05:38;27.00;99.90
64939;DHT22;51453;47.738;7.420;2022-08-05T08:08:04;27.30;99.90
64939;DHT22;51453;47.738;7.420;2022-08-05T08:10:29;27.40;99.90
64939;DHT22;51453;47.738;7.420;2022-08-05T08:12:55;27.50;99.90
64939;DHT22;51453;47.738;7.420;2022-08-05T08:15:21;27.60;99.90
64939;DHT22;51453;47.738;7.420;2022-08-05T08:17:47;27.80;99.90
64939;DHT22;51453;47.738;7.420;2022-08-05T08:20:12;27.90;99.90
64939;DHT22;51453;47.738;7.420;2022-08-05T08:22:38;27.80;99.90
64939;DHT22;51453;47.738;7.420;2022-08-05T08:25:04;27.80;99.90
64939;DHT22;51453;47.738;7.420;2022-08-05T08:27:31;27.80;99.90
64939;DHT22;51453;47.738;7.420;2022-08-05T08:29:57;28.10;99.30
64939;DHT22;51453;47.738;7.420;2022-08-05T08:32:23;28.40;98.30
64939;DHT22;51453;47.738;7.420;2022-08-05T08:34:49;28.70;97.70
64939;DHT22;51453;47.738;7.420;2022-08-05T08:37:15;28.70;97.40
64939;DHT22;51453;47.738;7.420;2022-08-05T08:39:41;28.80;97.20
64939;DHT22;51453;47.738;7.420;2022-08-05T08:42:08;28.90;96.60
64939;DHT22;51453;47.738;7.420;2022-08-05T08:44:35;28.80;96.30
64939;DHT22;51453;47.738;7.420;2022-08-05T08:47:06;28.90;96.80
64939;DHT22;51453;47.738;7.420;2022-08-05T08:49:34;28.90;97.30
64939;DHT22;51453;47.738;7.420;2022-08-05T08:52:09;29.10;95.00
64939;DHT22;51453;47.738;7.420;2022-08-05T08:54:36;29.10;95.30
64939;DHT22;51453;47.738;7.420;2022-08-05T08:57:03;29.10;95.80
64939;DHT22;51453;47.738;7.420;2022-08-05T08:59:29;29.20;94.80
64939;DHT22;51453;47.738;7.420;2022-08-05T09:01:55;29.30;94.60
64939;DHT22;51453;47.738;7.420;2022-08-05T09:04:21;29.30;94.00
64939;DHT22;51453;47.738;7.420;2022-08-05T09:06:47;29.20;93.60
64939;DHT22;51453;47.738;7.420;2022-08-05T09:09:13;29.10;94.10
64939;DHT22;51453;47.738;7.420;2022-08-05T09:11:39;29.10;93.70
64939;DHT22;51453;47.738;7.420;2022-08-05T09:14:04;29.00;94.40
64939;DHT22;51453;47.738;7.420;2022-08-05T09:16:31;29.20;95.30
64939;DHT22;51453;47.738;7.420;2022-08-05T09:18:56;29.40;94.50
64939;DHT22;51453;47.738;7.420;2022-08-05T09:21:22;29.70;93.70
64939;DHT22;51453;47.738;7.420;2022-08-05T09:24:02;29.70;93.10
64939;DHT22;51453;47.738;7.420;2022-08-05T09:26:28;30.00;92.50
64939;DHT22;51453;47.738;7.420;2022-08-05T09:28:59;30.10;92.40
64939;DHT22;51453;47.738;7.420;2022-08-05T09:31:25;30.00;92.90
64939;DHT22;51453;47.738;7.420;2022-08-05T09:33:56;30.10;91.60
64939;DHT22;51453;47.738;7.420;2022-08-05T09:39:06;30.30;91.30
64939;DHT22;51453;47.738;7.420;2022-08-05T09:41:32;30.40;91.00
64939;DHT22;51453;47.738;7.420;2022-08-05T09:43:58;30.40;91.50
64939;DHT22;51453;47.738;7.420;2022-08-05T09:46:33;30.40;91.00
64939;DHT22;51453;47.738;7.420;2022-08-05T09:49:00;30.60;90.80
64939;DHT22;51453;47.738;7.420;2022-08-05T09:51:34;30.70;91.40
64939;DHT22;51453;47.738;7.420;2022-08-05T09:54:02;30.80;91.50
64939;DHT22;51453;47.738;7.420;2022-08-05T09:56:32;30.60;93.00
64939;DHT22;51453;47.738;7.420;2022-08-05T09:59:03;30.70;92.90
64939;DHT22;51453;47.738;7.420;2022-08-05T10:01:31;31.00;90.80
64939;DHT22;51453;47.738;7.420;2022-08-05T10:04:04;30.80;91.20
64939;DHT22;51453;47.738;7.420;2022-08-05T10:06:30;30.80;91.60
64939;DHT22;51453;47.738;7.420;2022-08-05T10:09:14;30.80;93.40
64939;DHT22;51453;47.738;7.420;2022-08-05T10:11:42;30.80;91.00
64939;DHT22;51453;47.738;7.420;2022-08-05T10:14:25;30.80;91.10
64939;DHT22;51453;47.738;7.420;2022-08-05T10:16:52;31.00;90.60
64939;DHT22;51453;47.738;7.420;2022-08-05T10:19:21;31.00;90.70
64939;DHT22;51453;47.738;7.420;2022-08-05T10:21:47;31.20;90.40
64939;DHT22;51453;47.738;7.420;2022-08-05T10:24:15;31.20;90.20
64939;DHT22;51453;47.738;7.420;2022-08-05T10:26:43;31.20;91.80
64939;DHT22;51453;47.738;7.420;2022-08-05T10:29:09;31.20;91.30
64939;DHT22;51453;47.738;7.420;2022-08-05T10:31:36;31.40;90.30
64939;DHT22;51453;47.738;7.420;2022-08-05T10:34:05;31.70;89.10
64939;DHT22;51453;47.738;7.420;2022-08-05T10:36:33;31.90;87.90
64939;DHT22;51453;47.738;7.420;2022-08-05T10:39:03;31.90;87.90
64939;DHT22;51453;47.738;7.420;2022-08-05T10:41:42;31.80;89.50
64939;DHT22;51453;47.738;7.420;2022-08-05T10:44:16;31.90;89.50
64939;DHT22;51453;47.738;7.420;2022-08-05T10:49:13;31.80;89.20
64939;DHT22;51453;47.738;7.420;2022-08-05T10:51:47;31.90;89.20
64939;DHT22;51453;47.738;7.420;2022-08-05T10:54:14;32.00;88.40
64939;DHT22;51453;47.738;7.420;2022-08-05T10:56:50;31.90;85.50
64939;DHT22;51453;47.738;7.420;2022-08-05T10:59:36;31.90;87.40
64939;DHT22;51453;47.738;7.420;2022-08-05T11:02:11;32.00;86.80
64939;DHT22;51453;47.738;7.420;2022-08-05T11:04:44;32.10;90.00
64939;DHT22;51453;47.738;7.420;2022-08-05T11:07:10;32.10;87.70
64939;DHT22;51453;47.738;7.420;2022-08-05T11:09:45;32.20;87.70
64939;DHT22;51453;47.738;7.420;2022-08-05T11:15:22;32.50;85.40
64939;DHT22;51453;47.738;7.420;2022-08-05T11:17:52;32.50;85.60
64939;DHT22;51453;47.738;7.420;2022-08-05T11:20:44;32.50;84.70
64939;DHT22;51453;47.738;7.420;2022-08-05T11:26:10;32.70;86.40
64939;DHT22;51453;47.738;7.420;2022-08-05T11:28:40;32.50;85.30
64939;DHT22;51453;47.738;7.420;2022-08-05T11:33:35;32.40;85.10
64939;DHT22;51453;47.738;7.420;2022-08-05T11:36:09;32.40;86.00
64939;DHT22;51453;47.738;7.420;2022-08-05T11:43:29;32.40;85.70
64939;DHT22;51453;47.738;7.420;2022-08-05T11:45:56;32.40;87.80
64939;DHT22;51453;47.738;7.420;2022-08-05T11:48:22;32.50;86.50
64939;DHT22;51453;47.738;7.420;2022-08-05T11:50:51;32.50;86.20
64939;DHT22;51453;47.738;7.420;2022-08-05T11:53:18;32.70;83.40
64939;DHT22;51453;47.738;7.420;2022-08-05T11:56:00;32.70;85.40
64939;DHT22;51453;47.738;7.420;2022-08-05T11:58:33;32.70;83.60
64939;DHT22;51453;47.738;7.420;2022-08-05T12:01:04;32.80;82.40
64939;DHT22;51453;47.738;7.420;2022-08-05T12:03:43;32.70;83.70
64939;DHT22;51453;47.738;7.420;2022-08-05T12:06:11;32.60;83.60
64939;DHT22;51453;47.738;7.420;2022-08-05T12:08:44;32.70;83.80
64939;DHT22;51453;47.738;7.420;2022-08-05T12:11:15;32.70;83.70
64939;DHT22;51453;47.738;7.420;2022-08-05T12:13:52;32.60;82.90
64939;DHT22;51453;47.738;7.420;2022-08-05T12:16:18;32.70;83.80
64939;DHT22;51453;47.738;7.420;2022-08-05T12:18:44;32.70;82.90
64939;DHT22;51453;47.738;7.420;2022-08-05T12:24:16;32.90;84.10
64939;DHT22;51453;47.738;7.420;2022-08-05T12:26:50;32.90;84.90
64939;DHT22;51453;47.738;7.420;2022-08-05T12:29:22;33.00;81.90
64939;DHT22;51453;47.738;7.420;2022-08-05T12:34:16;33.00;81.80
64939;DHT22;51453;47.738;7.420;2022-08-05T12:36:43;33.10;81.40
64939;DHT22;51453;47.738;7.420;2022-08-05T12:39:10;33.30;82.30
64939;DHT22;51453;47.738;7.420;2022-08-05T12:41:38;33.30;79.90
64939;DHT22;51453;47.738;7.420;2022-08-05T12:44:08;33.30;79.00
64939;DHT22;51453;47.738;7.420;2022-08-05T12:46:37;33.50;78.00
64939;DHT22;51453;47.738;7.420;2022-08-05T12:49:14;33.70;76.10
64939;DHT22;51453;47.738;7.420;2022-08-05T12:51:52;33.70;76.30
64939;DHT22;51453;47.738;7.420;2022-08-05T12:56:55;33.60;75.70
64939;DHT22;51453;47.738;7.420;2022-08-05T12:59:23;33.40;77.30
64939;DHT22;51453;47.738;7.420;2022-08-05T13:02:06;33.40;75.00
64939;DHT22;51453;47.738;7.420;2022-08-05T13:04:34;33.50;76.00
64939;DHT22;51453;47.738;7.420;2022-08-05T13:07:02;33.50;76.40
64939;DHT22;51453;47.738;7.420;2022-08-05T13:09:29;33.70;75.00
64939;DHT22;51453;47.738;7.420;2022-08-05T13:12:04;33.80;77.20
64939;DHT22;51453;47.738;7.420;2022-08-05T13:14:42;33.90;77.30
64939;DHT22;51453;47.738;7.420;2022-08-05T13:17:28;33.70;76.30
64939;DHT22;51453;47.738;7.420;2022-08-05T13:22:34;34.10;74.00
64939;DHT22;51453;47.738;7.420;2022-08-05T13:25:02;34.20;71.40
64939;DHT22;51453;47.738;7.420;2022-08-05T13:29:54;34.10;72.90
64939;DHT22;51453;47.738;7.420;2022-08-05T13:32:20;34.10;72.50
64939;DHT22;51453;47.738;7.420;2022-08-05T13:34:46;34.10;69.90
64939;DHT22;51453;47.738;7.420;2022-08-05T13:37:12;33.90;71.50
64939;DHT22;51453;47.738;7.420;2022-08-05T13:39:38;33.80;71.40
64939;DHT22;51453;47.738;7.420;2022-08-05T13:42:03;33.90;75.00
64939;DHT22;51453;47.738;7.420;2022-08-05T13:44:29;34.10;77.10
64939;DHT22;51453;47.738;7.420;2022-08-05T13:46:55;34.20;74.60
64939;DHT22;51453;47.738;7.420;2022-08-05T13:49:20;34.10;69.50
64939;DHT22;51453;47.738;7.420;2022-08-05T13:51:46;34.30;68.10
64939;DHT22;51453;47.738;7.420;2022-08-05T13:54:12;34.30;69.00
64939;DHT22;51453;47.738;7.420;2022-08-05T13:56:38;34.10;69.60
64939;DHT22;51453;47.738;7.420;2022-08-05T13:59:03;34.10;72.00
64939;DHT22;51453;47.738;7.420;2022-08-05T14:01:29;34.10;70.40
64939;DHT22;51453;47.738;7.420;2022-08-05T14:03:55;34.10;73.10
64939;DHT22;51453;47.738;7.420;2022-08-05T14:06:40;34.40;73.10
64939;DHT22;51453;47.738;7.420;2022-08-05T14:09:06;34.60;72.40
64939;DHT22;51453;47.738;7.420;2022-08-05T14:11:32;34.60;70.10
64939;DHT22;51453;47.738;7.420;2022-08-05T14:13:58;34.50;71.00
64939;DHT22;51453;47.738;7.420;2022-08-05T14:16:23;34.60;67.20
64939;DHT22;51453;47.738;7.420;2022-08-05T14:18:49;34.60;67.60
64939;DHT22;51453;47.738;7.420;2022-08-05T14:21:15;34.50;68.00
64939;DHT22;51453;47.738;7.420;2022-08-05T14:23:41;34.30;70.60
64939;DHT22;51453;47.738;7.420;2022-08-05T14:26:06;34.20;70.60
64939;DHT22;51453;47.738;7.420;2022-08-05T14:28:32;34.10;72.30
64939;DHT22;51453;47.738;7.420;2022-08-05T14:30:58;34.20;71.50
64939;DHT22;51453;47.738;7.420;2022-08-05T14:33:25;34.30;70.40
64939;DHT22;51453;47.738;7.420;2022-08-05T14:35:51;34.10;71.30
64939;DHT22;51453;47.738;7.420;2022-08-05T14:38:16;34.10;72.30
64939;DHT22;51453;47.738;7.420;2022-08-05T14:40:42;33.90;74.40
64939;DHT22;51453;47.738;7.420;2022-08-05T14:43:08;33.70;74.10
64939;DHT22;51453;47.738;7.420;2022-08-05T14:45:33;33.50;73.80
64939;DHT22;51453;47.738;7.420;2022-08-05T14:47:59;33.60;73.50
64939;DHT22;51453;47.738;7.420;2022-08-05T14:50:25;33.70;74.70
64939;DHT22;51453;47.738;7.420;2022-08-05T14:52:50;33.90;73.10
64939;DHT22;51453;47.738;7.420;2022-08-05T14:55:16;34.00;73.10
64939;DHT22;51453;47.738;7.420;2022-08-05T14:57:42;34.10;73.80
64939;DHT22;51453;47.738;7.420;2022-08-05T15:00:08;34.10;72.30
64939;DHT22;51453;47.738;7.420;2022-08-05T15:02:34;34.00;73.10
64939;DHT22;51453;47.738;7.420;2022-08-05T15:04:59;34.00;72.30
64939;DHT22;51453;47.738;7.420;2022-08-05T15:07:25;33.90;71.70
64939;DHT22;51453;47.738;7.420;2022-08-05T15:09:51;33.80;72.20
64939;DHT22;51453;47.738;7.420;2022-08-05T15:12:16;33.70;73.60
64939;DHT22;51453;47.738;7.420;2022-08-05T15:14:43;33.70;72.40
64939;DHT22;51453;47.738;7.420;2022-08-05T15:17:08;33.50;76.40
64939;DHT22;51453;47.738;7.420;2022-08-05T15:19:34;33.50;73.30
64939;DHT22;51453;47.738;7.420;2022-08-05T15:22:00;33.70;73.30
64939;DHT22;51453;47.738;7.420;2022-08-05T15:24:26;33.70;72.50
64939;DHT22;51453;47.738;7.420;2022-08-05T15:26:52;33.70;74.00
64939;DHT22;51453;47.738;7.420;2022-08-05T15:29:17;33.50;73.30
64939;DHT22;51453;47.738;7.420;2022-08-05T15:31:44;33.40;75.10
64939;DHT22;51453;47.738;7.420;2022-08-05T15:34:10;33.40;75.40
64939;DHT22;51453;47.738;7.420;2022-08-05T15:36:36;33.00;79.10
64939;DHT22;51453;47.738;7.420;2022-08-05T15:39:01;32.70;80.90
64939;DHT22;51453;47.738;7.420;2022-08-05T15:41:27;32.40;82.60
64939;DHT22;51453;47.738;7.420;2022-08-05T15:43:53;32.20;82.70
64939;DHT22;51453;47.738;7.420;2022-08-05T15:46:19;32.00;83.80
64939;DHT22;51453;47.738;7.420;2022-08-05T15:48:45;32.20;83.70
64939;DHT22;51453;47.738;7.420;2022-08-05T15:51:11;32.30;81.30
64939;DHT22;51453;47.738;7.420;2022-08-05T15:53:36;32.20;82.20
64939;DHT22;51453;47.738;7.420;2022-08-05T15:56:04;32.00;83.60
64939;DHT22;51453;47.738;7.420;2022-08-05T15:58:30;31.80;84.90
64939;DHT22;51453;47.738;7.420;2022-08-05T16:00:56;31.40;85.70
64939;DHT22;51453;47.738;7.420;2022-08-05T16:03:23;31.00;86.70
64939;DHT22;51453;47.738;7.420;2022-08-05T16:05:49;30.40;88.50
64939;DHT22;51453;47.738;7.420;2022-08-05T16:08:14;30.00;89.90
64939;DHT22;51453;47.738;7.420;2022-08-05T16:10:40;29.90;90.60
64939;DHT22;51453;47.738;7.420;2022-08-05T16:13:06;30.00;90.90
64939;DHT22;51453;47.738;7.420;2022-08-05T16:15:31;30.20;90.50
64939;DHT22;51453;47.738;7.420;2022-08-05T16:17:57;29.90;91.00